createdAt,value
2023-05-14T00:01:18.362Z,7.6
2023-05-14T00:03:18.108Z,6.8
2023-05-14T00:05:17.716Z,6.9
2023-05-14T00:09:17.105Z,7.1
2023-05-14T00:13:19.884Z,7
2023-05-14T00:15:19.585Z,7.1
2023-05-14T00:19:18.937Z,7.1
2023-05-14T00:21:18.681Z,7.4
2023-05-14T00:23:18.352Z,7.4
2023-05-14T00:25:21.484Z,8.5
2023-05-14T00:27:21.184Z,7
2023-05-14T00:30:22.710Z,8.4
2023-05-14T00:32:22.167Z,6.7
2023-05-14T00:38:24.694Z,8.1
2023-05-14T00:40:24.685Z,7.3
2023-05-14T00:42:24.073Z,7.7
2023-05-14T00:46:23.516Z,7.7
2023-05-14T00:50:23.038Z,6.8
2023-05-14T00:54:25.675Z,7.7
2023-05-14T00:56:25.372Z,8.8
2023-05-14T01:06:27.304Z,8.4
2023-05-14T01:08:27.010Z,8
2023-05-14T01:10:26.933Z,9.1
2023-05-14T01:14:26.109Z,7.4
2023-05-14T01:16:25.886Z,8.1
2023-05-14T01:22:28.377Z,8.4
2023-05-14T01:24:28.089Z,7.2
2023-05-14T01:25:29.612Z,9.5
2023-05-14T01:39:31.053Z,8.1
2023-05-14T01:41:30.756Z,9.2
2023-05-14T01:43:30.516Z,9
2023-05-14T01:45:30.198Z,8.7
2023-05-14T01:49:33.065Z,8.9
2023-05-14T01:51:32.820Z,10.1
2023-05-14T01:53:32.499Z,9.1
2023-05-14T01:55:32.228Z,9.7
2023-05-14T01:57:31.986Z,7.3
2023-05-14T01:59:31.685Z,8.2
2023-05-14T02:01:34.833Z,9.3
2023-05-14T02:03:34.586Z,9.5
2023-05-14T02:05:34.259Z,9.2
2023-05-14T02:15:36.380Z,9.1
2023-05-14T02:20:37.887Z,9.2
2023-05-14T02:22:37.634Z,8.1
2023-05-14T02:24:37.391Z,7.7
2023-05-14T02:26:37.092Z,8.9
2023-05-14T02:28:40.303Z,8.5
2023-05-14T02:30:39.983Z,7.9
2023-05-14T02:32:39.826Z,9.1
2023-05-14T02:34:39.476Z,8.8
2023-05-14T02:36:39.211Z,9.4
2023-05-14T02:38:38.918Z,8.2
2023-05-14T02:42:41.806Z,10.1
2023-05-14T02:48:41.057Z,8.8
2023-05-14T02:50:40.792Z,8.1
2023-05-14T02:52:40.543Z,9.4
2023-05-14T02:56:43.437Z,10.4
2023-05-14T03:00:42.923Z,10
2023-05-14T03:02:42.863Z,8.9
2023-05-14T03:04:42.423Z,9
2023-05-14T03:06:42.175Z,8.5
2023-05-14T03:16:59.921Z,10.4
2023-05-14T03:20:59.433Z,8.9
2023-05-14T03:23:02.528Z,11.6
2023-05-14T03:25:02.254Z,10.1
2023-05-14T03:27:02.029Z,8
2023-05-14T03:31:01.584Z,8.4
2023-05-14T03:33:01.307Z,10.2
2023-05-14T03:35:01.008Z,9.4
2023-05-14T03:39:03.940Z,10.1
2023-05-14T03:41:03.676Z,9.9
2023-05-14T03:43:03.481Z,8.7
2023-05-14T03:45:03.218Z,9.6
2023-05-14T03:49:02.878Z,9.4
2023-05-14T03:51:05.947Z,10.8
2023-05-14T03:53:05.686Z,9.3
2023-05-14T03:55:05.502Z,10.1
2023-05-14T03:57:05.257Z,8.4
2023-05-14T03:59:05.034Z,9.5
2023-05-14T04:01:04.783Z,9.1
2023-05-14T04:05:07.720Z,11.4
2023-05-14T04:10:08.818Z,11
2023-05-14T04:14:08.381Z,10.8
2023-05-14T04:16:08.182Z,10.5
2023-05-14T04:18:11.319Z,12.1
2023-05-14T04:20:11.081Z,11.6
2023-05-14T04:24:10.618Z,11.2
2023-05-14T04:26:11.955Z,10.7
2023-05-14T04:28:11.668Z,10.7
2023-05-14T04:30:11.425Z,11.5
2023-05-14T04:34:14.423Z,12.5
2023-05-14T04:36:14.104Z,11.2
2023-05-14T04:52:15.638Z,11.8
2023-05-14T04:54:15.421Z,11.3
2023-05-14T04:56:15.122Z,14.1
2023-05-14T04:58:14.899Z,12.8
2023-05-14T05:00:18.038Z,14.1
2023-05-14T05:05:19.093Z,15.6
2023-05-14T05:07:18.798Z,14.1
2023-05-14T05:11:18.297Z,11.9
2023-05-14T05:13:21.366Z,13.9
2023-05-14T05:15:21.055Z,11.6
2023-05-14T05:19:24.353Z,10.3
2023-05-14T05:21:20.197Z,8.4
2023-05-14T05:23:19.957Z,8.4
2023-05-14T05:25:19.619Z,7.8
2023-05-14T05:33:21.769Z,7.2
2023-05-14T05:35:21.465Z,7.1
2023-05-14T05:37:21.117Z,6.3
2023-05-14T05:41:23.830Z,7
2023-05-14T05:53:21.685Z,6.2
2023-05-14T05:55:24.689Z,6
2023-05-14T05:57:26.325Z,6
2023-05-14T06:00:25.738Z,5.5
2023-05-14T06:02:25.272Z,6.6
2023-05-14T06:12:26.361Z,6.1
2023-05-14T06:16:25.548Z,6
2023-05-14T06:22:27.628Z,5.6
2023-05-14T06:30:26.092Z,6
2023-05-14T06:32:25.440Z,5.8
2023-05-14T06:34:25.029Z,4.7
2023-05-14T06:36:27.981Z,7
2023-05-14T06:40:27.155Z,5.1
2023-05-14T06:42:26.679Z,7.4
2023-05-14T06:44:26.268Z,5.6
2023-05-14T06:48:25.513Z,6.7
2023-05-14T06:50:28.427Z,7.4
2023-05-14T06:52:28.054Z,5.7
2023-05-14T06:54:27.636Z,6.5
2023-05-14T06:56:49.007Z,6.8
2023-05-14T07:00:48.140Z,6.2
2023-05-14T07:02:51.097Z,7
2023-05-14T07:04:50.571Z,5.8
2023-05-14T07:08:49.669Z,5.5
2023-05-14T07:12:48.689Z,6
2023-05-14T07:14:48.218Z,5.2
2023-05-14T07:34:48.818Z,6.7
2023-05-14T07:36:48.205Z,5.4
2023-05-14T07:38:47.638Z,5.7
2023-05-14T07:40:47.014Z,4.3
2023-05-14T07:42:46.343Z,5.4
2023-05-14T07:46:48.391Z,5.5
2023-05-14T07:59:48.834Z,4.9
2023-05-14T08:01:48.077Z,5.2
2023-05-14T08:03:47.448Z,4.8
2023-05-14T08:05:46.531Z,4.7
2023-05-14T08:09:45.013Z,4.9
2023-05-14T08:13:46.701Z,4.5
2023-05-14T08:17:45.054Z,5.6
2023-05-14T08:23:42.502Z,4.3
2023-05-14T08:25:44.993Z,4.8
2023-05-14T08:31:42.447Z,4.3
2023-05-14T08:33:41.603Z,5.2
2023-05-14T08:37:39.861Z,5.3
2023-05-14T08:39:42.341Z,4.7
2023-05-14T08:41:41.455Z,4.8
2023-05-14T08:44:41.815Z,4.8
2023-05-14T08:54:40.635Z,3.4
2023-05-14T09:06:38.457Z,3.5
2023-05-14T09:08:37.461Z,3.9
2023-05-14T09:10:36.559Z,3.1
2023-05-14T09:12:35.592Z,4.2
2023-05-14T09:16:33.704Z,3.8
2023-05-14T09:34:31.373Z,3.6
2023-05-14T09:36:30.358Z,3.6
2023-05-14T09:38:29.313Z,3.5
2023-05-14T09:39:30.525Z,4.6
2023-05-14T09:41:29.580Z,3.8
2023-05-14T09:45:27.452Z,4
2023-05-14T09:47:29.969Z,3.4
2023-05-14T09:49:28.793Z,3.3
2023-05-14T09:51:27.753Z,3.3
2023-05-14T09:53:26.745Z,3.6
2023-05-14T09:55:25.713Z,4.4
2023-05-14T09:57:24.709Z,3.5
2023-05-14T09:59:23.651Z,3.7
2023-05-14T10:01:26.097Z,3.8
2023-05-14T10:05:24.004Z,4.4
2023-05-14T10:11:22.444Z,3.5
2023-05-14T10:19:21.949Z,3.4
2023-05-14T10:21:20.609Z,3.7
2023-05-14T10:23:19.618Z,3.9
2023-05-14T10:25:18.600Z,3.5
2023-05-14T10:27:17.609Z,3.7
2023-05-14T10:29:19.912Z,3.6
2023-05-14T10:41:32.764Z,3.5
2023-05-14T10:43:31.712Z,4.7
2023-05-14T10:45:30.696Z,3.1
2023-05-14T10:47:29.707Z,3.3
2023-05-14T10:49:42.479Z,3.2
2023-05-14T10:51:27.717Z,3.2
2023-05-14T10:59:26.842Z,3.8
2023-05-14T11:01:25.863Z,3.2
2023-05-14T11:03:24.765Z,3.5
2023-05-14T11:05:23.671Z,3.1
2023-05-14T11:07:22.651Z,3.6
2023-05-14T11:11:23.927Z,3.4
2023-05-14T11:13:22.891Z,3.2
2023-05-14T11:15:21.741Z,3.4
2023-05-14T11:17:20.719Z,4
2023-05-14T11:19:19.629Z,3.3
2023-05-14T11:21:18.647Z,3.1
2023-05-14T11:23:20.875Z,3.4
2023-05-14T11:25:19.815Z,3.3
2023-05-14T11:30:18.907Z,3.5
2023-05-14T11:32:17.772Z,3.3
2023-05-14T11:34:16.720Z,3.2
2023-05-14T11:38:17.958Z,2.5
2023-05-14T11:40:17.097Z,2.7
2023-05-14T11:42:15.737Z,2.2
2023-05-14T11:58:10.514Z,2.7
2023-05-14T12:00:09.443Z,3.3
2023-05-14T12:02:08.436Z,2.4
2023-05-14T12:04:10.796Z,2.8
2023-05-14T12:06:09.624Z,2.3
2023-05-14T12:08:08.612Z,2.5
2023-05-14T12:10:07.594Z,2.4
2023-05-14T12:12:06.493Z,1.9
2023-05-14T12:14:05.455Z,2
2023-05-14T12:16:04.394Z,2.5
2023-05-14T12:18:16.927Z,2.1
2023-05-14T12:20:05.701Z,2.3
2023-05-14T12:22:04.678Z,1.9
2023-05-14T12:23:05.875Z,2.3
2023-05-14T12:25:04.836Z,2.3
2023-05-14T12:27:03.792Z,2.2
2023-05-14T12:29:02.794Z,1.7
2023-05-14T12:31:05.190Z,2.5
2023-05-14T12:33:04.208Z,2
2023-05-14T12:35:03.150Z,2
2023-05-14T12:39:01.174Z,2.6
2023-05-14T12:41:00.126Z,2.6
2023-05-14T12:45:01.530Z,2.6
2023-05-14T12:48:59.561Z,2.9
2023-05-14T12:50:58.549Z,2.8
2023-05-14T12:52:57.535Z,1.7
2023-05-14T13:08:52.928Z,2.6
2023-05-14T13:16:52.386Z,2.6
2023-05-14T13:17:53.564Z,2.4
2023-05-14T13:21:51.510Z,2.5
2023-05-14T13:23:50.535Z,2.7
2023-05-14T13:25:52.877Z,2.4
2023-05-14T13:27:51.902Z,2.4
2023-05-14T13:31:49.893Z,1.9
2023-05-14T13:35:47.888Z,2.7
2023-05-14T13:37:46.895Z,2.2
2023-05-14T13:39:51.316Z,1.9
2023-05-14T13:41:48.262Z,1.9
2023-05-14T13:43:47.263Z,1.6
2023-05-14T13:45:46.307Z,1.9
2023-05-14T13:49:44.381Z,1.9
2023-05-14T13:51:43.465Z,2.2
2023-05-14T13:53:45.862Z,2.2
2023-05-14T13:55:45.855Z,2
2023-05-14T13:57:43.974Z,2.4
2023-05-14T13:59:43.070Z,2
2023-05-14T14:01:42.191Z,2.4
2023-05-14T14:03:41.213Z,2.1
2023-05-14T14:05:40.329Z,2.1
2023-05-14T14:07:42.796Z,1.9
2023-05-14T14:09:41.848Z,2.3
2023-05-14T14:11:40.967Z,1.5
2023-05-14T14:13:59.303Z,2.3
2023-05-14T14:15:58.419Z,2.1
2023-05-14T14:17:57.544Z,2.4
2023-05-14T14:19:59.981Z,1.9
2023-05-14T14:21:59.101Z,2
2023-05-14T14:23:58.243Z,2.1
2023-05-14T14:25:57.374Z,2.2
2023-05-14T14:31:54.785Z,1.7
2023-05-14T14:33:57.270Z,1.7
2023-05-14T14:35:56.450Z,1.8
2023-05-14T14:37:55.620Z,2.1
2023-05-14T14:39:54.746Z,1.8
2023-05-14T14:41:53.895Z,1.7
2023-05-14T14:43:53.043Z,2.1
2023-05-14T14:45:52.243Z,2
2023-05-14T14:47:54.738Z,2.4
2023-05-14T14:51:53.027Z,2
2023-05-14T14:55:51.312Z,1.7
2023-05-14T14:57:50.463Z,1.9
2023-05-14T14:59:49.594Z,1.7
2023-05-14T15:03:51.259Z,2
2023-05-14T15:05:50.348Z,2.3
2023-05-14T15:06:51.606Z,2.7
2023-05-14T15:08:50.784Z,2.4
2023-05-14T15:14:51.545Z,2
2023-05-14T15:16:51.243Z,1.8
2023-05-14T15:18:49.855Z,2.1
2023-05-14T15:20:48.971Z,2.1
2023-05-14T15:22:48.156Z,2
2023-05-14T15:24:47.287Z,1.6
2023-05-14T15:26:46.449Z,2.4
2023-05-14T15:28:48.966Z,2.9
2023-05-14T15:30:48.121Z,2.6
2023-05-14T15:32:47.363Z,2.2
2023-05-14T15:34:46.457Z,2.2
2023-05-14T15:36:45.600Z,2.1
2023-05-14T15:38:44.759Z,2
2023-05-14T15:40:43.957Z,2.1
2023-05-14T15:42:46.450Z,2.3
2023-05-14T15:44:45.624Z,2
2023-05-14T15:46:44.981Z,2.1
2023-05-14T15:48:43.995Z,2.6
2023-05-14T15:50:43.178Z,2.5
2023-05-14T15:52:42.345Z,2
2023-05-14T15:54:43.052Z,2.6
2023-05-14T15:58:44.728Z,2.4
2023-05-14T16:00:43.897Z,2.3
2023-05-14T16:01:45.193Z,2.2
2023-05-14T16:05:43.568Z,1.6
2023-05-14T16:07:42.803Z,1.7
2023-05-14T16:09:45.310Z,2.4
2023-05-14T16:11:44.510Z,2.2
2023-05-14T16:35:38.608Z,2.3
2023-05-14T16:41:39.667Z,2.2
2023-05-14T16:43:38.964Z,2.4
2023-05-14T16:45:38.204Z,2.8
2023-05-14T16:47:37.504Z,2.5
2023-05-14T16:51:39.316Z,2.7
2023-05-14T16:53:38.572Z,2.8
2023-05-14T16:55:37.858Z,3.2
2023-05-14T16:56:39.169Z,3.2
2023-05-14T16:58:38.432Z,2.9
2023-05-14T17:00:37.678Z,2.9
2023-05-14T17:02:36.980Z,2.5
2023-05-14T17:04:39.582Z,2.8
2023-05-14T17:06:39.336Z,2.5
2023-05-14T17:08:38.647Z,2.6
2023-05-14T17:12:37.188Z,2.3
2023-05-14T17:16:35.749Z,3.1
2023-05-14T17:18:38.386Z,3.4
2023-05-14T17:20:37.699Z,3.4
2023-05-14T17:22:36.977Z,3.5
2023-05-14T17:28:34.867Z,2.7
2023-05-14T17:36:35.437Z,3.9
2023-05-14T17:38:34.755Z,3.6
2023-05-14T17:44:32.700Z,3.8
2023-05-14T17:46:35.422Z,3.6
2023-05-14T17:48:34.722Z,3.8
2023-05-14T17:54:54.482Z,3.7
2023-05-14T17:56:53.853Z,4.2
2023-05-14T18:00:55.903Z,4.5
2023-05-14T18:12:55.482Z,4.6
2023-05-14T18:22:52.778Z,4.7
2023-05-14T18:30:54.121Z,4.7
2023-05-14T18:36:52.654Z,4.8
2023-05-14T18:38:52.212Z,3.9
2023-05-14T18:40:55.107Z,4.1
2023-05-14T18:42:54.613Z,4
2023-05-14T18:44:54.149Z,5.2
2023-05-14T18:45:55.704Z,5.3
2023-05-14T18:51:54.339Z,4.1
2023-05-14T18:53:57.328Z,5.4
2023-05-14T18:57:56.476Z,5.5
2023-05-14T18:59:56.043Z,5
2023-05-14T19:01:55.721Z,5.2
2023-05-14T19:03:55.410Z,4.1
2023-05-14T19:05:54.836Z,4.3
2023-05-14T19:09:57.328Z,5.3
2023-05-14T19:13:56.484Z,5.2
2023-05-14T19:17:55.712Z,4.8
2023-05-14T19:19:55.283Z,5
2023-05-14T19:21:58.330Z,5.2
2023-05-14T19:23:57.908Z,5.2
2023-05-14T19:25:57.480Z,4.6
2023-05-14T19:31:56.585Z,4.9
2023-05-14T19:33:55.963Z,6
2023-05-14T19:37:58.527Z,5
2023-05-14T19:39:58.195Z,4.6
2023-05-14T19:40:59.718Z,5.4
2023-05-14T19:42:59.301Z,5.5
2023-05-14T19:44:58.920Z,5.1
2023-05-14T19:46:58.574Z,5.9
2023-05-14T19:49:01.580Z,5.7
2023-05-14T19:51:01.217Z,3.8
2023-05-14T19:53:00.835Z,4.9
2023-05-14T19:58:59.653Z,5.1
2023-05-14T20:03:02.500Z,4.7
2023-05-14T20:11:00.665Z,5.7
2023-05-14T20:13:00.283Z,5.1
2023-05-14T20:14:59.878Z,4.5
2023-05-14T20:17:02.948Z,5.3
2023-05-14T20:19:02.601Z,5.4
2023-05-14T20:21:02.105Z,4.3
2023-05-14T20:23:01.694Z,5.4
2023-05-14T20:33:03.179Z,5.1
2023-05-14T20:35:02.735Z,5.6
2023-05-14T20:36:04.264Z,5.2
2023-05-14T20:38:03.860Z,6.2
2023-05-14T20:40:03.528Z,5.7
2023-05-14T20:42:03.132Z,6
2023-05-14T20:44:06.131Z,6.6
2023-05-14T20:52:04.660Z,5.6
2023-05-14T20:56:03.820Z,7.1
2023-05-14T21:00:06.519Z,7
2023-05-14T21:02:06.208Z,7
2023-05-14T21:04:05.892Z,6.7
2023-05-14T21:06:05.365Z,7
2023-05-14T21:08:05.006Z,7.8
2023-05-14T21:10:04.675Z,6.6
2023-05-14T21:12:07.701Z,7.4
2023-05-14T21:14:07.293Z,8.3
2023-05-14T21:16:07.025Z,7
2023-05-14T21:20:06.251Z,7.4
2023-05-14T21:22:05.881Z,6.1
2023-05-14T21:24:05.511Z,7.7
2023-05-14T21:26:08.590Z,9
2023-05-14T21:28:08.232Z,8.8
2023-05-14T21:30:07.912Z,7.3
2023-05-14T21:32:29.494Z,8.1
2023-05-14T21:34:30.533Z,8.2
2023-05-14T21:36:28.733Z,8.2
2023-05-14T21:38:33.319Z,8.1
2023-05-14T21:40:32.952Z,8.9
2023-05-14T21:42:32.659Z,8.3
2023-05-14T21:50:31.352Z,8.4
2023-05-14T21:54:34.101Z,8.3
2023-05-14T21:56:33.744Z,8.7
2023-05-14T22:00:33.081Z,7.7
2023-05-14T22:02:32.754Z,9.2
2023-05-14T22:04:32.424Z,8.8
2023-05-14T22:06:35.443Z,9.1
2023-05-14T22:08:35.111Z,8.4
2023-05-14T22:10:34.845Z,7.6
2023-05-14T22:12:34.498Z,7.4
2023-05-14T22:14:34.163Z,8.5
2023-05-14T22:16:33.849Z,7.9
2023-05-14T22:18:33.549Z,9.3
2023-05-14T22:20:36.572Z,7.9
2023-05-14T22:22:36.292Z,8.3
2023-05-14T22:24:35.943Z,8.7
2023-05-14T22:25:37.520Z,9.6
2023-05-14T22:41:38.330Z,8.3
2023-05-14T22:43:38.040Z,8
2023-05-14T22:45:37.703Z,6.9
2023-05-14T22:47:40.800Z,9.7
2023-05-14T22:49:40.438Z,8.2
2023-05-14T22:51:40.191Z,8.5
2023-05-14T22:53:39.830Z,7.8
2023-05-14T22:55:39.518Z,8.3
2023-05-14T22:57:39.226Z,7.6
2023-05-14T22:59:38.904Z,8.8
2023-05-14T23:01:42.037Z,9.5
2023-05-14T23:03:41.694Z,9.6
2023-05-14T23:05:41.394Z,7.9
2023-05-14T23:07:41.080Z,7
2023-05-14T23:15:43.356Z,10.1
2023-05-14T23:17:43.146Z,11
2023-05-14T23:19:42.795Z,9.7
2023-05-14T23:20:44.295Z,9.3
2023-05-14T23:26:43.408Z,8.6
2023-05-14T23:28:46.534Z,8.3
2023-05-14T23:30:46.227Z,9.2
2023-05-14T23:32:45.989Z,9.5
2023-05-14T23:36:45.396Z,7.9
2023-05-14T23:40:44.840Z,9.3
2023-05-14T23:46:47.359Z,10.6
2023-05-14T23:52:46.496Z,8.7
2023-05-14T23:54:46.212Z,8.3
2023-05-14T23:56:49.276Z,9.1
